createdAt,value
2022-12-17T00:00:01.696Z,15.95
2022-12-17T00:02:52.083Z,15.91
2022-12-17T00:05:39.800Z,15.89
2022-12-17T00:08:27.338Z,15.86
2022-12-17T00:11:17.681Z,15.84
2022-12-17T00:14:05.656Z,15.82
2022-12-17T00:16:53.267Z,15.81
2022-12-17T00:19:40.920Z,15.77
2022-12-17T00:22:29.518Z,15.75
2022-12-17T00:25:16.686Z,15.73
2022-12-17T00:28:05.185Z,15.70
2022-12-17T00:30:52.387Z,15.68
2022-12-17T00:33:39.663Z,15.67
2022-12-17T00:36:27.346Z,15.63
2022-12-17T00:39:16.378Z,15.60
2022-12-17T00:42:03.597Z,15.56
2022-12-17T00:44:52.166Z,15.53
2022-12-17T00:47:41.129Z,15.51
2022-12-17T00:50:29.931Z,15.49
2022-12-17T00:56:24.650Z,15.44
2022-12-17T00:59:11.957Z,15.43
2022-12-17T01:02:00.405Z,15.43
2022-12-17T01:04:47.552Z,15.40
2022-12-17T01:07:35.855Z,15.38
2022-12-17T01:10:23.316Z,15.36
2022-12-17T01:13:10.919Z,15.32
2022-12-17T01:15:58.027Z,15.30
2022-12-17T01:18:47.048Z,15.27
2022-12-17T01:21:34.002Z,15.26
2022-12-17T01:24:22.936Z,15.25
2022-12-17T01:27:10.448Z,15.22
2022-12-17T01:29:57.955Z,15.20
2022-12-17T01:32:44.997Z,15.18
2022-12-17T01:35:32.917Z,15.16
2022-12-17T01:38:19.889Z,15.15
2022-12-17T01:41:11.874Z,15.13
2022-12-17T01:43:58.755Z,15.12
2022-12-17T01:46:48.497Z,15.11
2022-12-17T01:49:35.969Z,15.09
2022-12-17T01:52:25.338Z,15.08
2022-12-17T01:55:12.607Z,15.06
2022-12-17T01:57:59.997Z,15.04
2022-12-17T02:00:47.279Z,15.03
2022-12-17T02:03:35.980Z,15.01
2022-12-17T02:06:29.413Z,15.01
2022-12-17T02:09:25.969Z,14.99
2022-12-17T02:12:31.889Z,14.97
2022-12-17T02:15:33.059Z,14.95
2022-12-17T02:18:21.607Z,14.94
2022-12-17T02:21:11.140Z,14.94
2022-12-17T02:24:14.274Z,14.92
2022-12-17T02:27:04.889Z,14.90
2022-12-17T02:29:58.129Z,14.90
2022-12-17T02:32:46.017Z,14.89
2022-12-17T02:35:38.477Z,14.87
2022-12-17T02:38:43.298Z,14.87
2022-12-17T02:41:46.347Z,14.84
2022-12-17T02:44:37.127Z,14.83
2022-12-17T02:47:26.678Z,14.83
2022-12-17T02:50:15.205Z,14.81
2022-12-17T02:53:05.457Z,14.80
2022-12-17T02:55:54.244Z,14.79
2022-12-17T02:58:41.676Z,14.78
2022-12-17T03:01:30.301Z,14.76
2022-12-17T03:04:17.017Z,14.75
2022-12-17T03:07:06.479Z,14.74
2022-12-17T03:09:53.527Z,14.74
2022-12-17T03:13:02.078Z,14.73
2022-12-17T03:15:48.787Z,14.69
2022-12-17T03:18:35.715Z,14.71
2022-12-17T03:21:22.657Z,14.68
2022-12-17T03:24:09.679Z,14.68
2022-12-17T03:26:56.746Z,14.68
2022-12-17T03:29:43.996Z,14.65
2022-12-17T03:32:30.717Z,14.66
2022-12-17T03:35:18.067Z,14.65
2022-12-17T03:38:05.078Z,14.63
2022-12-17T03:40:52.355Z,14.63
2022-12-17T03:43:39.736Z,14.58
2022-12-17T03:46:27.309Z,14.61
2022-12-17T03:49:14.177Z,14.59
2022-12-17T03:52:01.216Z,14.59
2022-12-17T03:54:48.037Z,14.57
2022-12-17T03:57:35.438Z,14.58
2022-12-17T04:00:24.938Z,14.56
2022-12-17T04:03:13.465Z,14.56
2022-12-17T04:06:01.189Z,14.55
2022-12-17T04:08:48.315Z,14.53
2022-12-17T04:11:35.146Z,14.52
2022-12-17T04:14:22.206Z,14.48
2022-12-17T04:17:08.977Z,14.51
2022-12-17T04:19:56.176Z,14.46
2022-12-17T04:22:43.057Z,14.48
2022-12-17T04:25:30.136Z,14.47
2022-12-17T04:28:28.075Z,14.48
2022-12-17T04:31:16.126Z,14.45
2022-12-17T04:34:03.271Z,14.46
2022-12-17T04:36:52.696Z,14.45
2022-12-17T04:39:40.058Z,14.44
2022-12-17T04:42:27.510Z,14.43
2022-12-17T04:45:14.780Z,14.42
2022-12-17T04:48:02.297Z,14.40
2022-12-17T04:50:49.498Z,14.40
2022-12-17T04:53:37.469Z,14.39
2022-12-17T04:56:25.817Z,14.37
2022-12-17T04:59:13.336Z,14.35
2022-12-17T05:02:00.963Z,14.34
2022-12-17T05:04:48.801Z,14.34
2022-12-17T05:07:35.680Z,14.35
2022-12-17T05:10:23.479Z,14.42
2022-12-17T05:13:20.118Z,14.46
2022-12-17T05:16:07.807Z,14.50
2022-12-17T05:18:55.251Z,14.59
2022-12-17T05:21:42.721Z,14.71
2022-12-17T05:24:29.940Z,14.83
2022-12-17T05:27:17.660Z,14.94
2022-12-17T05:30:04.874Z,15.04
2022-12-17T05:32:52.580Z,15.18
2022-12-17T05:35:39.701Z,15.25
2022-12-17T05:38:28.460Z,15.33
2022-12-17T05:41:18.231Z,15.48
2022-12-17T05:44:05.650Z,15.57
2022-12-17T05:46:52.851Z,15.70
2022-12-17T05:49:40.479Z,15.79
2022-12-17T05:52:27.630Z,15.87
2022-12-17T05:55:29.726Z,15.95
2022-12-17T05:58:28.244Z,16.09
2022-12-17T06:01:20.128Z,16.21
2022-12-17T06:04:07.956Z,16.24
2022-12-17T06:06:55.170Z,16.33
2022-12-17T06:09:42.921Z,16.37
2022-12-17T06:12:30.301Z,16.44
2022-12-17T06:15:18.000Z,16.54
2022-12-17T06:18:17.528Z,16.54
2022-12-17T06:21:05.387Z,16.67
2022-12-17T06:23:52.700Z,16.73
2022-12-17T06:26:40.014Z,16.78
2022-12-17T06:29:30.281Z,16.84
2022-12-17T06:32:17.662Z,16.91
2022-12-17T06:35:04.788Z,16.97
2022-12-17T06:37:52.442Z,17.01
2022-12-17T06:40:39.913Z,17.16
2022-12-17T06:43:28.071Z,17.31
2022-12-17T06:46:14.905Z,17.47
2022-12-17T06:49:02.460Z,17.51
2022-12-17T06:51:49.903Z,17.60
2022-12-17T06:54:38.190Z,17.59
2022-12-17T06:57:25.303Z,17.55
2022-12-17T07:00:12.634Z,17.53
2022-12-17T07:03:00.202Z,17.41
2022-12-17T07:05:47.834Z,17.35
2022-12-17T07:08:35.049Z,17.32
2022-12-17T07:11:22.624Z,17.21
2022-12-17T07:14:09.911Z,17.13
2022-12-17T07:16:57.520Z,17.08
2022-12-17T07:19:45.001Z,16.99
2022-12-17T07:22:32.357Z,16.94
2022-12-17T07:25:19.726Z,16.86
2022-12-17T07:28:14.115Z,16.85
2022-12-17T07:31:01.293Z,16.75
2022-12-17T07:34:02.722Z,16.73
2022-12-17T07:37:09.843Z,16.65
2022-12-17T07:39:57.512Z,16.58
2022-12-17T07:42:45.245Z,16.55
2022-12-17T07:45:32.895Z,16.49
2022-12-17T07:48:20.220Z,16.41
2022-12-17T07:51:08.771Z,16.41
2022-12-17T07:54:15.916Z,16.33
2022-12-17T07:57:03.171Z,16.28
2022-12-17T07:59:50.609Z,16.22
2022-12-17T08:02:38.281Z,16.17
2022-12-17T08:05:26.360Z,16.09
2022-12-17T08:08:13.871Z,16.08
2022-12-17T08:11:07.812Z,16.04
2022-12-17T08:13:57.101Z,15.98
2022-12-17T08:16:44.410Z,15.91
2022-12-17T08:19:32.228Z,15.89
2022-12-17T08:22:19.581Z,15.88
2022-12-17T08:25:07.182Z,15.83
2022-12-17T08:27:54.502Z,15.83
2022-12-17T08:30:42.208Z,15.80
2022-12-17T08:33:29.440Z,15.76
2022-12-17T08:36:16.870Z,15.72
2022-12-17T08:39:04.761Z,15.69
2022-12-17T08:41:54.957Z,15.67
2022-12-17T08:44:54.671Z,15.63
2022-12-17T08:47:44.900Z,15.62
2022-12-17T08:50:32.350Z,15.58
2022-12-17T08:53:20.740Z,15.54
2022-12-17T08:56:08.554Z,15.52
2022-12-17T08:58:59.251Z,15.50
2022-12-17T09:01:47.476Z,15.47
2022-12-17T09:04:34.843Z,15.45
2022-12-17T09:07:22.000Z,15.43
2022-12-17T09:10:09.499Z,15.42
2022-12-17T09:13:01.172Z,15.40
2022-12-17T09:15:52.113Z,15.39
2022-12-17T09:18:40.564Z,15.37
2022-12-17T09:21:28.211Z,15.34
2022-12-17T09:24:16.219Z,15.34
2022-12-17T09:27:03.800Z,15.32
2022-12-17T09:29:50.820Z,15.30
2022-12-17T09:32:39.780Z,15.30
2022-12-17T09:35:26.921Z,15.28
2022-12-17T09:38:14.971Z,15.25
2022-12-17T09:41:05.752Z,15.24
2022-12-17T09:44:13.602Z,15.27
2022-12-17T09:47:10.234Z,15.32
2022-12-17T09:49:57.522Z,15.34
2022-12-17T09:52:58.791Z,15.33
2022-12-17T09:55:52.999Z,15.32
2022-12-17T09:58:42.449Z,15.32
2022-12-17T10:01:47.101Z,15.30
2022-12-17T10:04:40.449Z,15.29
2022-12-17T10:07:31.790Z,15.22
2022-12-17T10:10:19.621Z,15.25
2022-12-17T10:13:08.162Z,15.27
2022-12-17T10:15:55.291Z,15.38
2022-12-17T10:18:43.329Z,15.48
2022-12-17T10:21:30.320Z,15.58
2022-12-17T10:24:26.840Z,15.68
2022-12-17T10:27:14.192Z,15.76
2022-12-17T10:30:02.577Z,15.84
2022-12-17T10:32:49.559Z,15.99
2022-12-17T10:35:45.178Z,16.12
2022-12-17T10:38:46.152Z,16.13
2022-12-17T10:41:52.790Z,16.22
2022-12-17T10:44:56.570Z,16.42
2022-12-17T10:47:45.208Z,16.45
2022-12-17T10:50:42.087Z,16.51
2022-12-17T10:53:40.576Z,16.63
2022-12-17T10:56:41.622Z,16.73
2022-12-17T10:59:55.599Z,16.81
2022-12-17T11:02:47.789Z,16.91
2022-12-17T11:05:41.971Z,16.96
2022-12-17T11:08:28.978Z,17.11
2022-12-17T11:11:16.349Z,17.21
2022-12-17T11:14:04.800Z,17.33
2022-12-17T11:17:00.999Z,17.49
2022-12-17T11:19:53.401Z,17.51
2022-12-17T11:22:40.780Z,17.66
2022-12-17T11:25:49.412Z,17.77
2022-12-17T11:28:47.519Z,17.93
2022-12-17T11:31:37.371Z,18.07
2022-12-17T11:35:00.051Z,18.10
2022-12-17T11:38:28.248Z,18.13
2022-12-17T11:41:23.689Z,18.10
2022-12-17T11:44:22.770Z,17.94
2022-12-17T11:47:11.560Z,17.92
2022-12-17T11:50:18.391Z,17.94
2022-12-17T11:53:27.955Z,17.94
2022-12-17T11:56:52.611Z,17.95
2022-12-17T12:00:03.814Z,17.90
2022-12-17T12:02:55.663Z,17.93
2022-12-17T12:06:02.163Z,17.90
2022-12-17T12:09:01.969Z,17.92
2022-12-17T12:12:09.687Z,17.94
2022-12-17T12:15:00.559Z,17.92
2022-12-17T12:18:07.744Z,17.90
2022-12-17T12:21:13.150Z,17.85
2022-12-17T12:24:06.300Z,17.81
2022-12-17T12:27:43.940Z,17.85
2022-12-17T12:30:42.293Z,17.91
2022-12-17T12:33:50.039Z,18.05
2022-12-17T12:36:39.059Z,18.11
2022-12-17T12:39:28.541Z,18.01
2022-12-17T12:42:21.121Z,17.43
2022-12-17T12:45:21.298Z,17.15
2022-12-17T12:48:17.351Z,16.94
2022-12-17T12:51:16.939Z,16.87
2022-12-17T12:54:14.854Z,16.89
2022-12-17T12:57:01.971Z,16.82
2022-12-17T12:59:53.559Z,16.81
2022-12-17T13:02:43.027Z,16.74
2022-12-17T13:05:38.968Z,16.68
2022-12-17T13:08:24.110Z,16.75
2022-12-17T13:10:53.730Z,16.71
2022-12-17T13:13:28.786Z,16.72
2022-12-17T13:16:02.273Z,16.72
2022-12-17T13:18:35.999Z,16.77
2022-12-17T13:21:16.359Z,16.73
2022-12-17T13:23:45.119Z,16.69
2022-12-17T13:26:23.199Z,16.74
2022-12-17T13:29:24.984Z,17.09
2022-12-17T13:32:09.320Z,17.27
2022-12-17T13:34:37.977Z,17.39
2022-12-17T13:37:11.628Z,17.38
2022-12-17T13:40:16.531Z,17.36
2022-12-17T13:42:46.516Z,17.40
2022-12-17T13:45:19.913Z,17.39
2022-12-17T13:47:59.179Z,17.40
2022-12-17T13:50:34.422Z,17.40
2022-12-17T13:53:12.384Z,17.40
2022-12-17T13:55:41.118Z,17.40
2022-12-17T13:58:22.539Z,17.40
2022-12-17T14:00:51.421Z,17.37
2022-12-17T14:03:42.909Z,17.35
2022-12-17T14:06:12.118Z,17.34
2022-12-17T14:08:41.148Z,17.33
2022-12-17T14:11:29.660Z,17.32
2022-12-17T14:13:58.668Z,17.30
2022-12-17T14:16:27.392Z,17.30
2022-12-17T14:18:57.547Z,17.26
2022-12-17T14:21:27.588Z,17.23
2022-12-17T14:23:57.337Z,17.21
2022-12-17T14:26:26.457Z,17.19
2022-12-17T14:28:55.819Z,17.16
2022-12-17T14:31:29.350Z,17.13
2022-12-17T14:34:16.608Z,17.10
2022-12-17T14:36:46.546Z,17.08
2022-12-17T14:39:25.665Z,17.02
2022-12-17T14:42:14.807Z,17.01
2022-12-17T14:44:54.366Z,16.96
2022-12-17T14:47:24.800Z,16.94
2022-12-17T14:50:21.783Z,16.91
2022-12-17T14:52:54.569Z,16.88
2022-12-17T14:55:24.049Z,16.85
2022-12-17T14:57:53.436Z,16.81
2022-12-17T15:00:22.639Z,16.77
2022-12-17T15:02:55.911Z,16.73
2022-12-17T15:05:25.115Z,16.67
2022-12-17T15:07:55.744Z,16.61
2022-12-17T15:10:24.832Z,16.53
2022-12-17T15:12:53.483Z,16.49
2022-12-17T15:15:22.478Z,16.45
2022-12-17T15:17:51.197Z,16.42
2022-12-17T15:20:21.442Z,16.38
2022-12-17T15:22:50.232Z,16.34
2022-12-17T15:25:20.294Z,16.31
2022-12-17T15:27:48.992Z,16.27
2022-12-17T15:30:18.378Z,16.25
2022-12-17T15:32:47.324Z,16.21
2022-12-17T15:35:16.426Z,16.17
2022-12-17T15:37:45.112Z,16.13
2022-12-17T15:40:14.165Z,16.12
2022-12-17T15:43:06.140Z,16.09
2022-12-17T15:45:35.574Z,16.05
2022-12-17T15:48:04.334Z,16.05
2022-12-17T15:50:33.512Z,16.03
2022-12-17T15:53:02.443Z,15.99
2022-12-17T15:55:31.555Z,15.98
2022-12-17T15:58:00.283Z,15.95
2022-12-17T16:00:29.447Z,15.93
2022-12-17T16:02:59.469Z,15.92
2022-12-17T16:05:28.802Z,15.94
2022-12-17T16:08:02.818Z,15.96
2022-12-17T16:10:32.113Z,16.00
2022-12-17T16:13:00.876Z,16.12
2022-12-17T16:15:30.532Z,16.18
2022-12-17T16:17:59.684Z,16.31
2022-12-17T16:20:28.792Z,16.36
2022-12-17T16:22:57.603Z,16.44
2022-12-17T16:25:26.602Z,16.51
2022-12-17T16:27:55.303Z,16.60
2022-12-17T16:30:24.315Z,16.71
2022-12-17T16:32:53.022Z,16.80
2022-12-17T16:35:23.929Z,16.82
2022-12-17T16:37:52.654Z,16.88
2022-12-17T16:40:22.603Z,16.94
2022-12-17T16:42:52.023Z,17.06
2022-12-17T16:45:21.051Z,17.07
2022-12-17T16:47:51.094Z,17.21
2022-12-17T16:50:20.153Z,17.23
2022-12-17T16:52:48.913Z,17.32
2022-12-17T16:55:18.022Z,17.40
2022-12-17T16:57:49.762Z,17.44
2022-12-17T17:00:18.896Z,17.51
2022-12-17T17:02:52.971Z,17.54
2022-12-17T17:05:22.877Z,17.75
2022-12-17T17:07:52.293Z,17.67
2022-12-17T17:10:21.333Z,17.70
2022-12-17T17:12:52.793Z,17.80
2022-12-17T17:15:22.973Z,17.87
2022-12-17T17:17:56.030Z,18.02
2022-12-17T17:20:32.688Z,18.01
2022-12-17T17:23:01.510Z,18.04
2022-12-17T17:25:54.280Z,17.97
2022-12-17T17:28:20.952Z,17.99
2022-12-17T17:30:50.021Z,17.93
2022-12-17T17:33:18.842Z,17.90
2022-12-17T17:35:47.794Z,17.90
2022-12-17T17:38:16.471Z,17.84
2022-12-17T17:40:45.504Z,17.69
2022-12-17T17:43:14.204Z,17.71
2022-12-17T17:45:43.450Z,17.66
2022-12-17T17:48:12.113Z,17.57
2022-12-17T17:50:41.116Z,17.57
2022-12-17T17:53:09.883Z,17.60
2022-12-17T17:55:38.612Z,17.54
2022-12-17T17:58:07.597Z,17.54
2022-12-17T18:00:37.673Z,17.56
2022-12-17T18:03:06.773Z,17.69
2022-12-17T18:05:41.731Z,17.68
2022-12-17T18:08:11.062Z,17.72
2022-12-17T18:10:39.783Z,17.81
2022-12-17T18:13:27.622Z,17.86
2022-12-17T18:16:01.973Z,17.89
2022-12-17T18:18:31.412Z,17.94
2022-12-17T18:21:07.962Z,18.02
2022-12-17T18:23:37.412Z,17.90
